Terminal Aerodrome Forecast
Issued by NWS Twin Cities, MN

Home | Current Version | Previous Version | Graphics & Text | Print | Product List | Glossary On
Versions: 1 2 3 4 5 6 7 8 9 10 11 12 13 14 15 16 17 18
000
FTUS43 KMPX 271100 RRA
TAFEAU
TAF
KEAU 271143Z 2712/2812 33007KT P6SM SKC
     FM272200 VRB03KT P6SM SCT200
     FM280400 17003KT P6SM BKN120=

USA.gov is the U.S. government's official web portal to all federal, state and local government web resources and services.